Emmagracht — PDYX — position and weather

sailwx.info

Track history (hours):
 
Tides and Currents Weather Stations Pressure Air Temp Water Temp Dewpoint Dewpoint Depression Visibility Wind Speed Wind Dir Waves Ship Positions

Emmagracht

Last reported at 2017-Apr-27 05:24 UTC. Time now 2017-Apr-27 07:14 UTC.
Position N 29°44' W 095°07'.

Length 136 m; beam 19 m; draft 9 m.

Type: Cargo ship. MMSI: 246308000.

Date/timePositionNaut miles runAvg speedWind from/ knotsBaromVisibWave heightAir tempDewpointWater temp
2017-Apr-27 05:24N 29°44' W 095°07'1 2.0
2017-Apr-27 04:59N 29°45' W 095°06'3 6.3
2017-Apr-27 04:29N 29°44' W 095°03'4 9.0
2017-Apr-27 04:00N 29°41' W 094°59'612.0
2017-Apr-27 03:30N 29°35' W 094°56'612.3
2017-Apr-27 02:59N 29°30' W 094°52'6 9.7
2017-Apr-27 02:21N 29°25' W 094°49'9911.9
2017-Apr-26 18:00N 27°48' W 094°24'31613.2 140 / 211001.9 2.2 27.024.323.0
2017-Apr-25 18:00N 22°36' W 095°18'16312.9 140 / 171006.9 5.4 29.023.522.0
2017-Apr-25 05:21N 19°56' W 095°51'2612.8
2017-Apr-25 03:17N 19°30' W 095°55'412.9
2017-Apr-25 03:00N 19°26' W 095°56'812.8
2017-Apr-25 02:23N 19°18' W 095°57'411.3
2017-Apr-25 02:00N 19°14' W 095°59'610.8
2017-Apr-25 01:29N 19°11' W 096°04'4 7.8
2017-Apr-25 01:01N 19°12' W 096°08'0 0.2
2017-Apr-25 00:30N 19°12' W 096°08'0 0.0
2017-Apr-25 00:00N 19°12' W 096°08'0 0.0
2017-Apr-24 23:30N 19°12' W 096°08'0 0.0
2017-Apr-24 23:00N 19°12' W 096°08'0 0.0
2017-Apr-24 22:30N 19°12' W 096°08'0 0.0
2017-Apr-24 21:54N 19°12' W 096°08'0 0.0
2017-Apr-24 21:30N 19°12' W 096°08'0 0.0
2017-Apr-24 21:00N 19°12' W 096°08'0 0.0
2017-Apr-24 20:30N 19°12' W 096°08'0 0.0
2017-Apr-24 20:00N 19°12' W 096°08'0 0.0
2017-Apr-24 19:30N 19°12' W 096°08'0 0.0
2017-Apr-24 19:00N 19°12' W 096°08'0 0.0
2017-Apr-24 18:27N 19°12' W 096°08'0 0.0
2017-Apr-24 18:00N 19°12' W 096°08'0 0.0
2017-Apr-24 17:30N 19°12' W 096°08'0 0.0
2017-Apr-24 17:00N 19°12' W 096°08'0 0.0
2017-Apr-24 16:30N 19°12' W 096°08'0 0.0
2017-Apr-24 16:00N 19°12' W 096°08'0 0.0
2017-Apr-24 15:30N 19°12' W 096°08'0 0.0
2017-Apr-24 15:00N 19°12' W 096°08'0 0.0
2017-Apr-24 14:30N 19°12' W 096°08'0 0.0
2017-Apr-24 13:30N 19°12' W 096°08'0 0.0
2017-Apr-24 13:00N 19°12' W 096°08'0 0.0
2017-Apr-24 12:30N 19°12' W 096°08'0 0.0
2017-Apr-24 12:00N 19°12' W 096°08'0 0.0
2017-Apr-24 11:30N 19°12' W 096°08'0 0.0
2017-Apr-24 11:00N 19°12' W 096°08'0 0.0
2017-Apr-24 10:30N 19°12' W 096°08'0 0.0
2017-Apr-24 10:00N 19°12' W 096°08'0 0.0
2017-Apr-24 09:24N 19°12' W 096°08'0 0.0
2017-Apr-24 09:00N 19°12' W 096°08'0 0.0
2017-Apr-24 08:30N 19°12' W 096°08'0 0.0
2017-Apr-24 08:00N 19°12' W 096°08'0 0.0
2017-Apr-24 07:30N 19°12' W 096°08'0 0.0
2017-Apr-24 07:00N 19°12' W 096°08'0 0.0
2017-Apr-24 06:30N 19°12' W 096°08'0 0.0
2017-Apr-24 06:00N 19°12' W 096°08'0 0.0
2017-Apr-24 05:30N 19°12' W 096°08'0 0.0
2017-Apr-24 05:00N 19°12' W 096°08'0 0.0
2017-Apr-24 04:30N 19°12' W 096°08'0 0.0
2017-Apr-24 04:00N 19°12' W 096°08'0 0.0
2017-Apr-24 03:30N 19°12' W 096°08'0 0.0
2017-Apr-24 03:00N 19°12' W 096°08'0 0.0
2017-Apr-24 02:30N 19°12' W 096°08'0 0.0
2017-Apr-24 02:00N 19°12' W 096°08'0 0.0
2017-Apr-24 01:30N 19°12' W 096°08'0 0.0
2017-Apr-24 00:54N 19°12' W 096°08'0 0.0
2017-Apr-24 00:30N 19°12' W 096°08'0 0.0
2017-Apr-24 00:00N 19°12' W 096°08'0 0.0
2017-Apr-23 23:29N 19°12' W 096°08'0 0.0
2017-Apr-23 22:59N 19°12' W 096°08'0 0.0
2017-Apr-23 22:23N 19°12' W 096°08'0 0.0
2017-Apr-23 21:59N 19°12' W 096°08'0 0.0
2017-Apr-23 21:29N 19°12' W 096°08'0 0.0
2017-Apr-23 20:56N 19°12' W 096°08'0 0.0
2017-Apr-23 20:29N 19°12' W 096°08'0 0.0
2017-Apr-23 19:59N 19°12' W 096°08'0 0.0
2017-Apr-23 19:29N 19°12' W 096°08'0 0.0
2017-Apr-23 18:59N 19°12' W 096°08'0 0.0
2017-Apr-23 18:29N 19°12' W 096°08'0 0.0
2017-Apr-23 17:59N 19°12' W 096°08'0 0.0
2017-Apr-23 17:29N 19°12' W 096°08'0 0.0
2017-Apr-23 16:56N 19°12' W 096°08'0 0.0
2017-Apr-23 16:29N 19°12' W 096°08'0 0.0
2017-Apr-23 15:59N 19°12' W 096°08'0 0.0
2017-Apr-23 15:29N 19°12' W 096°08'0 0.0
2017-Apr-23 14:53N 19°12' W 096°08'0 0.0
2017-Apr-23 13:41N 19°12' W 096°08'0 0.0
2017-Apr-23 13:29N 19°12' W 096°08'0 0.0
2017-Apr-23 12:59N 19°12' W 096°08'0 0.0
2017-Apr-23 12:29N 19°12' W 096°08'0 0.0
2017-Apr-23 11:59N 19°12' W 096°08'0 0.0
2017-Apr-23 11:29N 19°12' W 096°08'0 0.0
2017-Apr-23 10:59N 19°12' W 096°08'0 0.0
2017-Apr-23 10:23N 19°12' W 096°08'0 0.0
2017-Apr-23 09:59N 19°12' W 096°08'0 0.0
2017-Apr-23 09:29N 19°12' W 096°08'0 0.0
2017-Apr-23 08:53N 19°12' W 096°08'0 0.0
2017-Apr-23 08:26N 19°12' W 096°08'0 0.0
2017-Apr-23 07:59N 19°12' W 096°08'0 0.0
2017-Apr-23 07:29N 19°12' W 096°08'0 0.0
2017-Apr-23 06:59N 19°12' W 096°08'0 0.0
2017-Apr-23 06:29N 19°12' W 096°08'0 0.0
2017-Apr-23 05:59N 19°12' W 096°08'0 0.0
2017-Apr-23 05:29N 19°12' W 096°08'0 0.0
2017-Apr-23 04:59N 19°12' W 096°08'0 0.0
2017-Apr-23 04:29N 19°12' W 096°08'0 0.0
2017-Apr-23 03:59N 19°12' W 096°08'0 0.0
2017-Apr-23 03:26N 19°12' W 096°08'0 0.0
2017-Apr-23 02:56N 19°12' W 096°08'0 0.0
2017-Apr-23 02:29N 19°12' W 096°08'0 0.0
2017-Apr-23 01:59N 19°12' W 096°08'0 0.0
2017-Apr-23 01:29N 19°12' W 096°08'0 0.0
2017-Apr-23 00:53N 19°12' W 096°08'0 0.0
2017-Apr-23 00:29N 19°12' W 096°08'0 0.0
2017-Apr-22 23:47N 19°12' W 096°08'0 0.0
2017-Apr-22 23:23N 19°12' W 096°08'0 0.0
2017-Apr-22 22:59N 19°12' W 096°08'0 0.0
2017-Apr-22 22:23N 19°12' W 096°08'0 0.0
2017-Apr-22 21:53N 19°12' W 096°08'0 0.0
2017-Apr-22 21:26N 19°12' W 096°08'0 0.0
2017-Apr-22 20:59N 19°12' W 096°08'0 0.0
2017-Apr-22 20:29N 19°12' W 096°08'0 0.0
2017-Apr-22 19:59N 19°12' W 096°08'0 0.0
2017-Apr-22 19:29N 19°12' W 096°08'0 0.0
2017-Apr-22 18:59N 19°12' W 096°08'0 0.0
2017-Apr-22 18:29N 19°12' W 096°08'0 0.0
2017-Apr-22 17:59N 19°12' W 096°08'0 0.0
2017-Apr-22 17:29N 19°12' W 096°08'0 0.0
2017-Apr-22 16:59N 19°12' W 096°08'0 0.0
2017-Apr-22 16:29N 19°12' W 096°08'0 0.0
2017-Apr-22 15:59N 19°12' W 096°08'0 0.0
2017-Apr-22 15:23N 19°12' W 096°08'0 0.0
2017-Apr-22 14:59N 19°12' W 096°08'0 0.0
2017-Apr-22 14:23N 19°12' W 096°08'0 0.0
2017-Apr-22 13:29N 19°12' W 096°08'0 0.0
2017-Apr-22 12:59N 19°12' W 096°08'0 0.0
2017-Apr-22 12:28N 19°12' W 096°08'0 0.0
2017-Apr-22 11:58N 19°12' W 096°08'0 0.0
2017-Apr-22 11:28N 19°12' W 096°08'0 0.0
2017-Apr-22 10:58N 19°12' W 096°08'0 0.0
2017-Apr-22 10:28N 19°12' W 096°08'0 0.0
2017-Apr-22 09:58N 19°12' W 096°08'0 0.0
2017-Apr-22 09:28N 19°12' W 096°08'0 0.0
2017-Apr-22 08:58N 19°12' W 096°08'0 0.0
2017-Apr-22 08:28N 19°12' W 096°08'0 0.0
2017-Apr-22 07:58N 19°12' W 096°08'0 0.0
2017-Apr-22 07:28N 19°12' W 096°08'0 0.0
2017-Apr-22 06:58N 19°12' W 096°08'0 0.0
2017-Apr-22 06:28N 19°12' W 096°08'0 0.0
2017-Apr-22 05:55N 19°12' W 096°08'0 0.0
2017-Apr-22 05:28N 19°12' W 096°08'0 0.0
2017-Apr-22 04:58N 19°12' W 096°08'0 0.0
2017-Apr-22 04:28N 19°12' W 096°08'0 0.0
2017-Apr-22 03:58N 19°12' W 096°08'0 0.0
2017-Apr-22 03:28N 19°12' W 096°08'0 0.0
2017-Apr-22 02:58N 19°12' W 096°08'0 0.0
2017-Apr-22 02:28N 19°12' W 096°08'0 0.0
2017-Apr-22 01:58N 19°12' W 096°08'0 0.0
2017-Apr-22 01:28N 19°12' W 096°08'0 0.0
2017-Apr-22 00:58N 19°12' W 096°08'0 0.0
2017-Apr-22 00:28N 19°12' W 096°08'0 0.0
2017-Apr-21 23:58N 19°12' W 096°08'0 0.0
2017-Apr-21 23:28N 19°12' W 096°08'0 0.0
2017-Apr-21 22:58N 19°12' W 096°08'0 0.0
2017-Apr-21 22:28N 19°12' W 096°08'0 0.0
2017-Apr-21 21:58N 19°12' W 096°08'0 0.0
2017-Apr-21 21:28N 19°12' W 096°08'0 0.0
2017-Apr-21 20:58N 19°12' W 096°08'0 0.0
2017-Apr-21 20:10N 19°12' W 096°08'0 0.0
2017-Apr-21 19:58N 19°12' W 096°08'0 0.0
2017-Apr-21 19:28N 19°12' W 096°08'0 0.0
2017-Apr-21 18:58N 19°12' W 096°08'0 0.0
2017-Apr-21 18:28N 19°12' W 096°08'0 0.0
2017-Apr-21 17:58N 19°12' W 096°08'0 0.0
2017-Apr-21 17:28N 19°12' W 096°08'0 0.0
2017-Apr-21 16:58N 19°12' W 096°08'0 0.0
2017-Apr-21 16:28N 19°12' W 096°08'0 0.0
2017-Apr-21 15:58N 19°12' W 096°08'0 0.0
2017-Apr-21 15:28N 19°12' W 096°08'0 0.0
2017-Apr-21 14:58N 19°12' W 096°08'0 0.0
2017-Apr-21 14:28N 19°12' W 096°08'0 0.0
2017-Apr-21 13:28N 19°12' W 096°08'0 0.0
2017-Apr-21 12:58N 19°12' W 096°08'0 0.0
2017-Apr-21 12:28N 19°12' W 096°08'0 0.0
2017-Apr-21 11:58N 19°12' W 096°08'0 0.0
2017-Apr-21 11:28N 19°12' W 096°08'0 0.0
2017-Apr-21 10:58N 19°12' W 096°08'0 0.0
2017-Apr-21 10:28N 19°12' W 096°08'0 0.0
2017-Apr-21 09:58N 19°12' W 096°08'0 0.0
2017-Apr-21 09:28N 19°12' W 096°08'0 0.0
2017-Apr-21 08:58N 19°12' W 096°08'0 0.0
2017-Apr-21 08:28N 19°12' W 096°08'0 0.0
2017-Apr-21 07:58N 19°12' W 096°08'0 0.0
2017-Apr-21 07:28N 19°12' W 096°08'0 0.0
2017-Apr-21 06:58N 19°12' W 096°08'0 0.0
2017-Apr-21 06:28N 19°12' W 096°08'0 0.0
2017-Apr-21 05:58N 19°12' W 096°08'0 0.0
2017-Apr-21 05:28N 19°12' W 096°08'0 0.0
2017-Apr-21 04:58N 19°12' W 096°08'0 0.0
2017-Apr-21 04:28N 19°12' W 096°08'0 0.0
2017-Apr-21 03:58N 19°12' W 096°08'0 0.0
2017-Apr-21 03:28N 19°12' W 096°08'0 0.0
2017-Apr-21 02:58N 19°12' W 096°08'0 0.0
2017-Apr-21 02:28N 19°12' W 096°08'0 0.0
2017-Apr-21 02:01N 19°12' W 096°08'0 0.0
2017-Apr-21 01:31N 19°12' W 096°08'0 0.0
2017-Apr-21 01:01N 19°12' W 096°08'0 0.0
2017-Apr-21 00:30N 19°12' W 096°08'0 0.0
2017-Apr-21 00:01N 19°12' W 096°08'0 0.0
2017-Apr-20 23:27N 19°12' W 096°08'0 0.0
2017-Apr-20 22:57N 19°12' W 096°08'0 0.0
2017-Apr-20 22:30N 19°12' W 096°08'0 0.0
2017-Apr-20 22:00N 19°12' W 096°08'0 0.0
2017-Apr-20 21:30N 19°12' W 096°08'0 0.0
2017-Apr-20 20:57N 19°12' W 096°08'0 0.0
2017-Apr-20 20:27N 19°12' W 096°08'0 0.0
2017-Apr-20 20:00N 19°12' W 096°08'0 0.0
2017-Apr-20 19:30N 19°12' W 096°08'0 0.0
2017-Apr-20 19:00N 19°12' W 096°08'0 0.0
2017-Apr-20 18:30N 19°12' W 096°08'0 0.0
2017-Apr-20 17:57N 19°12' W 096°08'0 0.0
2017-Apr-20 17:30N 19°12' W 096°08'0 0.0
2017-Apr-20 17:00N 19°12' W 096°08'0 0.0
2017-Apr-20 16:27N 19°12' W 096°08'0 0.0
2017-Apr-20 15:54N 19°12' W 096°08'0 0.0
2017-Apr-20 15:30N 19°12' W 096°08'0 0.0
2017-Apr-20 14:57N 19°12' W 096°08'0 0.0
2017-Apr-20 14:27N 19°12' W 096°08'0 0.0
2017-Apr-20 13:27N 19°12' W 096°08'0 0.0
2017-Apr-20 12:51N 19°12' W 096°08'0 0.0
2017-Apr-20 12:30N 19°12' W 096°08'0 0.0
2017-Apr-20 12:00N 19°12' W 096°08'0 0.0
2017-Apr-20 11:30N 19°12' W 096°08'0 0.0
2017-Apr-20 11:00N 19°12' W 096°08'0 0.0
2017-Apr-20 10:30N 19°12' W 096°08'0 0.0
2017-Apr-20 10:00N 19°12' W 096°08'0 0.0
2017-Apr-20 09:30N 19°12' W 096°08'0 0.0
2017-Apr-20 09:00N 19°12' W 096°08'0 0.0
2017-Apr-20 08:30N 19°12' W 096°08'0 0.0
2017-Apr-20 08:00N 19°12' W 096°08'0 0.0
2017-Apr-20 07:30N 19°12' W 096°08'0 0.0
2017-Apr-20 07:00N 19°12' W 096°08'0 0.0
2017-Apr-20 06:30N 19°12' W 096°08'0 0.0
2017-Apr-20 06:00N 19°12' W 096°08'0 0.0
2017-Apr-20 05:27N 19°12' W 096°08'0 0.0
2017-Apr-20 05:00N 19°12' W 096°08'0 0.0
2017-Apr-20 04:30N 19°12' W 096°08'0 0.0
2017-Apr-20 04:00N 19°12' W 096°08'0 0.0
2017-Apr-20 03:30N 19°12' W 096°08'0 0.0
2017-Apr-20 03:00N 19°12' W 096°08'0 0.0
2017-Apr-20 02:27N 19°12' W 096°08'0 0.0
2017-Apr-20 01:57N 19°12' W 096°08'0 0.0
2017-Apr-20 01:27N 19°12' W 096°08'0 0.0
2017-Apr-20 00:57N 19°12' W 096°08'0 0.0
2017-Apr-20 00:30N 19°12' W 096°08'0 0.0
2017-Apr-20 00:00N 19°12' W 096°08'0 0.0
2017-Apr-19 23:30N 19°12' W 096°08'0 0.0
2017-Apr-19 23:00N 19°12' W 096°08'0 0.0
2017-Apr-19 22:30N 19°12' W 096°08'0 0.0
2017-Apr-19 21:57N 19°12' W 096°08'0 0.0
2017-Apr-19 21:30N 19°12' W 096°08'0 0.0
2017-Apr-19 21:00N 19°12' W 096°08'0 0.0
2017-Apr-19 20:27N 19°12' W 096°08'0 0.0
2017-Apr-19 19:57N 19°12' W 096°08'0 0.0
2017-Apr-19 19:27N 19°12' W 096°08'0 0.0
2017-Apr-19 18:54N 19°12' W 096°08'0 0.0
2017-Apr-19 18:30N 19°12' W 096°08'0 0.0
2017-Apr-19 18:00N 19°12' W 096°08'0 0.0
2017-Apr-19 17:27N 19°12' W 096°08'0 0.0
2017-Apr-19 16:57N 19°12' W 096°08'0 0.0
2017-Apr-19 16:30N 19°12' W 096°08'0 0.0
2017-Apr-19 15:57N 19°12' W 096°08'0 0.0
2017-Apr-19 15:27N 19°12' W 096°08'0 0.0
2017-Apr-19 14:57N 19°12' W 096°08'0 0.0
2017-Apr-19 14:30N 19°12' W 096°08'0 0.0
2017-Apr-19 13:24N 19°12' W 096°08'0 0.0
2017-Apr-19 13:00N 19°12' W 096°08'0 0.0
2017-Apr-19 12:27N 19°12' W 096°08'0 0.0
2017-Apr-19 11:56N 19°12' W 096°08'0 0.0
2017-Apr-19 11:29N 19°12' W 096°08'0 0.0
2017-Apr-19 10:44N 19°12' W 096°08'0 0.0
2017-Apr-19 10:29N 19°12' W 096°08'0 0.0
2017-Apr-19 09:53N 19°12' W 096°08'0 0.0
2017-Apr-19 09:29N 19°12' W 096°08'0 0.0
2017-Apr-19 08:59N 19°12' W 096°08'0 0.0
2017-Apr-19 08:29N 19°12' W 096°08'0 0.0
2017-Apr-19 07:59N 19°12' W 096°08'0 0.0
2017-Apr-19 07:29N 19°12' W 096°08'0 0.0
2017-Apr-19 06:56N 19°12' W 096°08'0 0.0
2017-Apr-19 06:26N 19°12' W 096°08'0 0.0
2017-Apr-19 05:56N 19°12' W 096°08'0 0.0
2017-Apr-19 05:26N 19°12' W 096°08'0 0.0
2017-Apr-19 04:59N 19°12' W 096°08'0 0.0
2017-Apr-19 04:20N 19°12' W 096°08'0 0.0
2017-Apr-19 03:59N 19°12' W 096°08'0 0.0
2017-Apr-19 03:26N 19°12' W 096°08'0 0.0
2017-Apr-19 02:59N 19°12' W 096°08'0 0.0
2017-Apr-19 02:29N 19°12' W 096°08'0 0.0
2017-Apr-19 01:56N 19°12' W 096°08'0 0.0
2017-Apr-19 01:29N 19°12' W 096°08'0 0.0
2017-Apr-19 00:59N 19°12' W 096°08'0 0.0
2017-Apr-19 00:26N 19°12' W 096°08'0 0.0
2017-Apr-18 23:53N 19°12' W 096°08'0 0.0
2017-Apr-18 23:26N 19°12' W 096°08'0 0.0
2017-Apr-18 22:50N 19°12' W 096°08'0 0.0
2017-Apr-18 22:29N 19°12' W 096°08'0 0.0
2017-Apr-18 21:59N 19°12' W 096°08'0 0.0
2017-Apr-18 21:26N 19°12' W 096°08'0 0.0
2017-Apr-18 20:56N 19°12' W 096°08'0 0.0
2017-Apr-18 20:29N 19°12' W 096°08'0 0.0
2017-Apr-18 19:56N 19°12' W 096°08'0 0.0
2017-Apr-18 19:29N 19°12' W 096°08'0 0.0
2017-Apr-18 18:56N 19°12' W 096°08'0 0.0
2017-Apr-18 18:20N 19°12' W 096°08'0 0.0
2017-Apr-18 17:56N 19°12' W 096°08'0 0.0
2017-Apr-18 17:26N 19°12' W 096°08'0 0.0
2017-Apr-18 16:56N 19°12' W 096°08'0 0.0
2017-Apr-18 16:26N 19°12' W 096°08'0 0.0
2017-Apr-18 15:59N 19°12' W 096°08'0 0.0
2017-Apr-18 15:29N 19°12' W 096°08'0 0.0
2017-Apr-18 14:59N 19°12' W 096°08'0 0.0
2017-Apr-18 14:26N 19°12' W 096°08'0 0.0
2017-Apr-18 13:29N 19°12' W 096°08'0 0.0
2017-Apr-18 12:59N 19°12' W 096°08'0 0.0
2017-Apr-18 12:29N 19°12' W 096°08'0 0.0
2017-Apr-18 11:59N 19°12' W 096°08'0 0.0
2017-Apr-18 11:29N 19°12' W 096°08'0 0.0
2017-Apr-18 10:59N 19°12' W 096°08'0 0.0
2017-Apr-18 10:29N 19°12' W 096°08'0 0.0
2017-Apr-18 09:59N 19°12' W 096°08'0 0.0
2017-Apr-18 09:29N 19°12' W 096°08'0 0.0
2017-Apr-18 08:59N 19°12' W 096°08'0 0.0
2017-Apr-18 08:29N 19°12' W 096°08'0 0.0
2017-Apr-18 07:59N 19°12' W 096°08'0 0.0
2017-Apr-18 07:29N 19°12' W 096°08'0 0.0
2017-Apr-18 06:56N 19°12' W 096°08'0 0.0
2017-Apr-18 06:29N 19°12' W 096°08'0 0.0
2017-Apr-18 05:59N 19°12' W 096°08'0 0.0
2017-Apr-18 05:20N 19°12' W 096°08'0 0.0
2017-Apr-18 04:59N 19°12' W 096°08'0 0.0
2017-Apr-18 04:29N 19°12' W 096°08'0 0.0
2017-Apr-18 03:59N 19°12' W 096°08'0 0.0
2017-Apr-18 03:29N 19°12' W 096°08'0 0.0
2017-Apr-18 02:56N 19°12' W 096°08'0 0.0
2017-Apr-18 02:29N 19°12' W 096°08'0 0.0
2017-Apr-18 01:50N 19°12' W 096°08'0 0.0
2017-Apr-18 01:29N 19°12' W 096°08'0 0.0
2017-Apr-18 00:59N 19°12' W 096°08'0 0.0
2017-Apr-18 00:19N 19°12' W 096°08'0 0.0
2017-Apr-17 23:58N 19°12' W 096°08'0 0.0
2017-Apr-17 23:28N 19°12' W 096°08'0 0.0
2017-Apr-17 22:55N 19°12' W 096°08'0 0.0
2017-Apr-17 22:25N 19°12' W 096°08'0 0.0
2017-Apr-17 21:58N 19°12' W 096°08'0 0.0
2017-Apr-17 21:28N 19°12' W 096°08'0 0.4
2017-Apr-17 20:57N 19°12' W 096°08'4 8.2
2017-Apr-17 20:29N 19°11' W 096°04'1 1.6
2017-Apr-17 19:50N 19°10' W 096°05'0 0.0
2017-Apr-17 19:17N 19°10' W 096°05'0 0.0
2017-Apr-17 18:53N 19°10' W 096°05'0 0.0
2017-Apr-17 18:20N 19°10' W 096°05'617.2
2017-Apr-17 18:00N 19°06' W 096°00'614.4 060 / 61013.4 5.4 28.523.722.0
2017-Apr-17 17:35N 19°10' W 096°05'0 0.0
2017-Apr-17 17:23N 19°10' W 096°05'0 0.0
2017-Apr-17 16:53N 19°10' W 096°05'0 0.0
2017-Apr-17 16:02N 19°10' W 096°05'0 0.1
2017-Apr-17 15:56N 19°10' W 096°05'0 0.0
2017-Apr-17 15:26N 19°10' W 096°05'0 0.0
2017-Apr-17 14:14N 19°10' W 096°05'0 0.0
2017-Apr-17 13:26N 19°10' W 096°05'0 0.0
2017-Apr-17 12:56N 19°10' W 096°05'0 0.0
2017-Apr-17 12:26N 19°10' W 096°05'0 0.0
2017-Apr-17 11:59N 19°10' W 096°05'0 0.0
2017-Apr-17 11:29N 19°10' W 096°05'0 0.1
2017-Apr-17 10:56N 19°10' W 096°05'0 0.0
2017-Apr-17 10:14N 19°10' W 096°05'0 0.0
2017-Apr-17 09:56N 19°10' W 096°05'0 0.0
2017-Apr-17 09:26N 19°10' W 096°05'0 0.0
2017-Apr-17 08:44N 19°10' W 096°05'0 0.0
2017-Apr-17 08:08N 19°10' W 096°05'0 0.0
2017-Apr-17 07:56N 19°10' W 096°05'0 0.0
2017-Apr-17 07:26N 19°10' W 096°05'6 4.1
2017-Apr-17 06:00N 19°06' W 096°00'635.7 090 / 41014.4 5.4 25.022.921.0
2017-Apr-17 05:50N 19°10' W 096°05'  
Track history (hours):
 
Tides and Currents Weather Stations Pressure Air Temp Water Temp Dewpoint Dewpoint Depression Visibility Wind Speed Wind Dir Waves Ship Positions

Emmagracht

Last reported at 2017-Apr-27 05:24 UTC. Time now 2017-Apr-27 07:14 UTC.
Position N 29°44' W 095°07'.

Length 136 m; beam 19 m; draft 9 m.

Type: Cargo ship. MMSI: 246308000.

Date/timePositionNaut miles runAvg speedWind from/ knotsBaromVisibWave heightAir tempDewpointWater temp
2017-Apr-27 05:24N 29°44' W 095°07'1 2.0
2017-Apr-27 04:59N 29°45' W 095°06'3 6.3
2017-Apr-27 04:29N 29°44' W 095°03'4 9.0
2017-Apr-27 04:00N 29°41' W 094°59'612.0
2017-Apr-27 03:30N 29°35' W 094°56'612.3
2017-Apr-27 02:59N 29°30' W 094°52'6 9.7
2017-Apr-27 02:21N 29°25' W 094°49'9911.9
2017-Apr-26 18:00N 27°48' W 094°24'31613.2 140 / 211001.9 2.2 27.024.323.0
2017-Apr-25 18:00N 22°36' W 095°18'16312.9 140 / 171006.9 5.4 29.023.522.0
2017-Apr-25 05:21N 19°56' W 095°51'2612.8
2017-Apr-25 03:17N 19°30' W 095°55'412.9
2017-Apr-25 03:00N 19°26' W 095°56'812.8
2017-Apr-25 02:23N 19°18' W 095°57'411.3
2017-Apr-25 02:00N 19°14' W 095°59'610.8
2017-Apr-25 01:29N 19°11' W 096°04'4 7.8
2017-Apr-25 01:01N 19°12' W 096°08'0 0.2
2017-Apr-25 00:30N 19°12' W 096°08'0 0.0
2017-Apr-25 00:00N 19°12' W 096°08'0 0.0
2017-Apr-24 23:30N 19°12' W 096°08'0 0.0
2017-Apr-24 23:00N 19°12' W 096°08'0 0.0
2017-Apr-24 22:30N 19°12' W 096°08'0 0.0
2017-Apr-24 21:54N 19°12' W 096°08'0 0.0
2017-Apr-24 21:30N 19°12' W 096°08'0 0.0
2017-Apr-24 21:00N 19°12' W 096°08'0 0.0
2017-Apr-24 20:30N 19°12' W 096°08'0 0.0
2017-Apr-24 20:00N 19°12' W 096°08'0 0.0
2017-Apr-24 19:30N 19°12' W 096°08'0 0.0
2017-Apr-24 19:00N 19°12' W 096°08'0 0.0
2017-Apr-24 18:27N 19°12' W 096°08'0 0.0
2017-Apr-24 18:00N 19°12' W 096°08'0 0.0
2017-Apr-24 17:30N 19°12' W 096°08'0 0.0
2017-Apr-24 17:00N 19°12' W 096°08'0 0.0
2017-Apr-24 16:30N 19°12' W 096°08'0 0.0
2017-Apr-24 16:00N 19°12' W 096°08'0 0.0
2017-Apr-24 15:30N 19°12' W 096°08'0 0.0
2017-Apr-24 15:00N 19°12' W 096°08'0 0.0
2017-Apr-24 14:30N 19°12' W 096°08'0 0.0
2017-Apr-24 13:30N 19°12' W 096°08'0 0.0
2017-Apr-24 13:00N 19°12' W 096°08'0 0.0
2017-Apr-24 12:30N 19°12' W 096°08'0 0.0
2017-Apr-24 12:00N 19°12' W 096°08'0 0.0
2017-Apr-24 11:30N 19°12' W 096°08'0 0.0
2017-Apr-24 11:00N 19°12' W 096°08'0 0.0
2017-Apr-24 10:30N 19°12' W 096°08'0 0.0
2017-Apr-24 10:00N 19°12' W 096°08'0 0.0
2017-Apr-24 09:24N 19°12' W 096°08'0 0.0
2017-Apr-24 09:00N 19°12' W 096°08'0 0.0
2017-Apr-24 08:30N 19°12' W 096°08'0 0.0
2017-Apr-24 08:00N 19°12' W 096°08'0 0.0
2017-Apr-24 07:30N 19°12' W 096°08'0 0.0
2017-Apr-24 07:00N 19°12' W 096°08'0 0.0
2017-Apr-24 06:30N 19°12' W 096°08'0 0.0
2017-Apr-24 06:00N 19°12' W 096°08'0 0.0
2017-Apr-24 05:30N 19°12' W 096°08'0 0.0
2017-Apr-24 05:00N 19°12' W 096°08'0 0.0
2017-Apr-24 04:30N 19°12' W 096°08'0 0.0
2017-Apr-24 04:00N 19°12' W 096°08'0 0.0
2017-Apr-24 03:30N 19°12' W 096°08'0 0.0
2017-Apr-24 03:00N 19°12' W 096°08'0 0.0
2017-Apr-24 02:30N 19°12' W 096°08'0 0.0
2017-Apr-24 02:00N 19°12' W 096°08'0 0.0
2017-Apr-24 01:30N 19°12' W 096°08'0 0.0
2017-Apr-24 00:54N 19°12' W 096°08'0 0.0
2017-Apr-24 00:30N 19°12' W 096°08'0 0.0
2017-Apr-24 00:00N 19°12' W 096°08'0 0.0
2017-Apr-23 23:29N 19°12' W 096°08'0 0.0
2017-Apr-23 22:59N 19°12' W 096°08'0 0.0
2017-Apr-23 22:23N 19°12' W 096°08'0 0.0
2017-Apr-23 21:59N 19°12' W 096°08'0 0.0
2017-Apr-23 21:29N 19°12' W 096°08'0 0.0
2017-Apr-23 20:56N 19°12' W 096°08'0 0.0
2017-Apr-23 20:29N 19°12' W 096°08'0 0.0
2017-Apr-23 19:59N 19°12' W 096°08'0 0.0
2017-Apr-23 19:29N 19°12' W 096°08'0 0.0
2017-Apr-23 18:59N 19°12' W 096°08'0 0.0
2017-Apr-23 18:29N 19°12' W 096°08'0 0.0
2017-Apr-23 17:59N 19°12' W 096°08'0 0.0
2017-Apr-23 17:29N 19°12' W 096°08'0 0.0
2017-Apr-23 16:56N 19°12' W 096°08'0 0.0
2017-Apr-23 16:29N 19°12' W 096°08'0 0.0
2017-Apr-23 15:59N 19°12' W 096°08'0 0.0
2017-Apr-23 15:29N 19°12' W 096°08'0 0.0
2017-Apr-23 14:53N 19°12' W 096°08'0 0.0
2017-Apr-23 13:41N 19°12' W 096°08'0 0.0
2017-Apr-23 13:29N 19°12' W 096°08'0 0.0
2017-Apr-23 12:59N 19°12' W 096°08'0 0.0
2017-Apr-23 12:29N 19°12' W 096°08'0 0.0
2017-Apr-23 11:59N 19°12' W 096°08'0 0.0
2017-Apr-23 11:29N 19°12' W 096°08'0 0.0
2017-Apr-23 10:59N 19°12' W 096°08'0 0.0
2017-Apr-23 10:23N 19°12' W 096°08'0 0.0
2017-Apr-23 09:59N 19°12' W 096°08'0 0.0
2017-Apr-23 09:29N 19°12' W 096°08'0 0.0
2017-Apr-23 08:53N 19°12' W 096°08'0 0.0
2017-Apr-23 08:26N 19°12' W 096°08'0 0.0
2017-Apr-23 07:59N 19°12' W 096°08'0 0.0
2017-Apr-23 07:29N 19°12' W 096°08'0 0.0
2017-Apr-23 06:59N 19°12' W 096°08'0 0.0
2017-Apr-23 06:29N 19°12' W 096°08'0 0.0
2017-Apr-23 05:59N 19°12' W 096°08'0 0.0
2017-Apr-23 05:29N 19°12' W 096°08'0 0.0
2017-Apr-23 04:59N 19°12' W 096°08'0 0.0
2017-Apr-23 04:29N 19°12' W 096°08'0 0.0
2017-Apr-23 03:59N 19°12' W 096°08'0 0.0
2017-Apr-23 03:26N 19°12' W 096°08'0 0.0
2017-Apr-23 02:56N 19°12' W 096°08'0 0.0
2017-Apr-23 02:29N 19°12' W 096°08'0 0.0
2017-Apr-23 01:59N 19°12' W 096°08'0 0.0
2017-Apr-23 01:29N 19°12' W 096°08'0 0.0
2017-Apr-23 00:53N 19°12' W 096°08'0 0.0
2017-Apr-23 00:29N 19°12' W 096°08'0 0.0
2017-Apr-22 23:47N 19°12' W 096°08'0 0.0
2017-Apr-22 23:23N 19°12' W 096°08'0 0.0
2017-Apr-22 22:59N 19°12' W 096°08'0 0.0
2017-Apr-22 22:23N 19°12' W 096°08'0 0.0
2017-Apr-22 21:53N 19°12' W 096°08'0 0.0
2017-Apr-22 21:26N 19°12' W 096°08'0 0.0
2017-Apr-22 20:59N 19°12' W 096°08'0 0.0
2017-Apr-22 20:29N 19°12' W 096°08'0 0.0
2017-Apr-22 19:59N 19°12' W 096°08'0 0.0
2017-Apr-22 19:29N 19°12' W 096°08'0 0.0
2017-Apr-22 18:59N 19°12' W 096°08'0 0.0
2017-Apr-22 18:29N 19°12' W 096°08'0 0.0
2017-Apr-22 17:59N 19°12' W 096°08'0 0.0
2017-Apr-22 17:29N 19°12' W 096°08'0 0.0
2017-Apr-22 16:59N 19°12' W 096°08'0 0.0
2017-Apr-22 16:29N 19°12' W 096°08'0 0.0
2017-Apr-22 15:59N 19°12' W 096°08'0 0.0
2017-Apr-22 15:23N 19°12' W 096°08'0 0.0
2017-Apr-22 14:59N 19°12' W 096°08'0 0.0
2017-Apr-22 14:23N 19°12' W 096°08'0 0.0
2017-Apr-22 13:29N 19°12' W 096°08'0 0.0
2017-Apr-22 12:59N 19°12' W 096°08'0 0.0
2017-Apr-22 12:28N 19°12' W 096°08'0 0.0
2017-Apr-22 11:58N 19°12' W 096°08'0 0.0
2017-Apr-22 11:28N 19°12' W 096°08'0 0.0
2017-Apr-22 10:58N 19°12' W 096°08'0 0.0
2017-Apr-22 10:28N 19°12' W 096°08'0 0.0
2017-Apr-22 09:58N 19°12' W 096°08'0 0.0
2017-Apr-22 09:28N 19°12' W 096°08'0 0.0
2017-Apr-22 08:58N 19°12' W 096°08'0 0.0
2017-Apr-22 08:28N 19°12' W 096°08'0 0.0
2017-Apr-22 07:58N 19°12' W 096°08'0 0.0
2017-Apr-22 07:28N 19°12' W 096°08'0 0.0
2017-Apr-22 06:58N 19°12' W 096°08'0 0.0
2017-Apr-22 06:28N 19°12' W 096°08'0 0.0
2017-Apr-22 05:55N 19°12' W 096°08'0 0.0
2017-Apr-22 05:28N 19°12' W 096°08'0 0.0
2017-Apr-22 04:58N 19°12' W 096°08'0 0.0
2017-Apr-22 04:28N 19°12' W 096°08'0 0.0
2017-Apr-22 03:58N 19°12' W 096°08'0 0.0
2017-Apr-22 03:28N 19°12' W 096°08'0 0.0
2017-Apr-22 02:58N 19°12' W 096°08'0 0.0
2017-Apr-22 02:28N 19°12' W 096°08'0 0.0
2017-Apr-22 01:58N 19°12' W 096°08'0 0.0
2017-Apr-22 01:28N 19°12' W 096°08'0 0.0
2017-Apr-22 00:58N 19°12' W 096°08'0 0.0
2017-Apr-22 00:28N 19°12' W 096°08'0 0.0
2017-Apr-21 23:58N 19°12' W 096°08'0 0.0
2017-Apr-21 23:28N 19°12' W 096°08'0 0.0
2017-Apr-21 22:58N 19°12' W 096°08'0 0.0
2017-Apr-21 22:28N 19°12' W 096°08'0 0.0
2017-Apr-21 21:58N 19°12' W 096°08'0 0.0
2017-Apr-21 21:28N 19°12' W 096°08'0 0.0
2017-Apr-21 20:58N 19°12' W 096°08'0 0.0
2017-Apr-21 20:10N 19°12' W 096°08'0 0.0
2017-Apr-21 19:58N 19°12' W 096°08'0 0.0
2017-Apr-21 19:28N 19°12' W 096°08'0 0.0
2017-Apr-21 18:58N 19°12' W 096°08'0 0.0
2017-Apr-21 18:28N 19°12' W 096°08'0 0.0
2017-Apr-21 17:58N 19°12' W 096°08'0 0.0
2017-Apr-21 17:28N 19°12' W 096°08'0 0.0
2017-Apr-21 16:58N 19°12' W 096°08'0 0.0
2017-Apr-21 16:28N 19°12' W 096°08'0 0.0
2017-Apr-21 15:58N 19°12' W 096°08'0 0.0
2017-Apr-21 15:28N 19°12' W 096°08'0 0.0
2017-Apr-21 14:58N 19°12' W 096°08'0 0.0
2017-Apr-21 14:28N 19°12' W 096°08'0 0.0
2017-Apr-21 13:28N 19°12' W 096°08'0 0.0
2017-Apr-21 12:58N 19°12' W 096°08'0 0.0
2017-Apr-21 12:28N 19°12' W 096°08'0 0.0
2017-Apr-21 11:58N 19°12' W 096°08'0 0.0
2017-Apr-21 11:28N 19°12' W 096°08'0 0.0
2017-Apr-21 10:58N 19°12' W 096°08'0 0.0
2017-Apr-21 10:28N 19°12' W 096°08'0 0.0
2017-Apr-21 09:58N 19°12' W 096°08'0 0.0
2017-Apr-21 09:28N 19°12' W 096°08'0 0.0
2017-Apr-21 08:58N 19°12' W 096°08'0 0.0
2017-Apr-21 08:28N 19°12' W 096°08'0 0.0
2017-Apr-21 07:58N 19°12' W 096°08'0 0.0
2017-Apr-21 07:28N 19°12' W 096°08'0 0.0
2017-Apr-21 06:58N 19°12' W 096°08'0 0.0
2017-Apr-21 06:28N 19°12' W 096°08'0 0.0
2017-Apr-21 05:58N 19°12' W 096°08'0 0.0
2017-Apr-21 05:28N 19°12' W 096°08'0 0.0
2017-Apr-21 04:58N 19°12' W 096°08'0 0.0
2017-Apr-21 04:28N 19°12' W 096°08'0 0.0
2017-Apr-21 03:58N 19°12' W 096°08'0 0.0
2017-Apr-21 03:28N 19°12' W 096°08'0 0.0
2017-Apr-21 02:58N 19°12' W 096°08'0 0.0
2017-Apr-21 02:28N 19°12' W 096°08'0 0.0
2017-Apr-21 02:01N 19°12' W 096°08'0 0.0
2017-Apr-21 01:31N 19°12' W 096°08'0 0.0
2017-Apr-21 01:01N 19°12' W 096°08'0 0.0
2017-Apr-21 00:30N 19°12' W 096°08'0 0.0
2017-Apr-21 00:01N 19°12' W 096°08'0 0.0
2017-Apr-20 23:27N 19°12' W 096°08'0 0.0
2017-Apr-20 22:57N 19°12' W 096°08'0 0.0
2017-Apr-20 22:30N 19°12' W 096°08'0 0.0
2017-Apr-20 22:00N 19°12' W 096°08'0 0.0
2017-Apr-20 21:30N 19°12' W 096°08'0 0.0
2017-Apr-20 20:57N 19°12' W 096°08'0 0.0
2017-Apr-20 20:27N 19°12' W 096°08'0 0.0
2017-Apr-20 20:00N 19°12' W 096°08'0 0.0
2017-Apr-20 19:30N 19°12' W 096°08'0 0.0
2017-Apr-20 19:00N 19°12' W 096°08'0 0.0
2017-Apr-20 18:30N 19°12' W 096°08'0 0.0
2017-Apr-20 17:57N 19°12' W 096°08'0 0.0
2017-Apr-20 17:30N 19°12' W 096°08'0 0.0
2017-Apr-20 17:00N 19°12' W 096°08'0 0.0
2017-Apr-20 16:27N 19°12' W 096°08'0 0.0
2017-Apr-20 15:54N 19°12' W 096°08'0 0.0
2017-Apr-20 15:30N 19°12' W 096°08'0 0.0
2017-Apr-20 14:57N 19°12' W 096°08'0 0.0
2017-Apr-20 14:27N 19°12' W 096°08'0 0.0
2017-Apr-20 13:27N 19°12' W 096°08'0 0.0
2017-Apr-20 12:51N 19°12' W 096°08'0 0.0
2017-Apr-20 12:30N 19°12' W 096°08'0 0.0
2017-Apr-20 12:00N 19°12' W 096°08'0 0.0
2017-Apr-20 11:30N 19°12' W 096°08'0 0.0
2017-Apr-20 11:00N 19°12' W 096°08'0 0.0
2017-Apr-20 10:30N 19°12' W 096°08'0 0.0
2017-Apr-20 10:00N 19°12' W 096°08'0 0.0
2017-Apr-20 09:30N 19°12' W 096°08'0 0.0
2017-Apr-20 09:00N 19°12' W 096°08'0 0.0
2017-Apr-20 08:30N 19°12' W 096°08'0 0.0
2017-Apr-20 08:00N 19°12' W 096°08'0 0.0
2017-Apr-20 07:30N 19°12' W 096°08'0 0.0
2017-Apr-20 07:00N 19°12' W 096°08'0 0.0
2017-Apr-20 06:30N 19°12' W 096°08'0 0.0
2017-Apr-20 06:00N 19°12' W 096°08'0 0.0
2017-Apr-20 05:27N 19°12' W 096°08'0 0.0
2017-Apr-20 05:00N 19°12' W 096°08'0 0.0
2017-Apr-20 04:30N 19°12' W 096°08'0 0.0
2017-Apr-20 04:00N 19°12' W 096°08'0 0.0
2017-Apr-20 03:30N 19°12' W 096°08'0 0.0
2017-Apr-20 03:00N 19°12' W 096°08'0 0.0
2017-Apr-20 02:27N 19°12' W 096°08'0 0.0
2017-Apr-20 01:57N 19°12' W 096°08'0 0.0
2017-Apr-20 01:27N 19°12' W 096°08'0 0.0
2017-Apr-20 00:57N 19°12' W 096°08'0 0.0
2017-Apr-20 00:30N 19°12' W 096°08'0 0.0
2017-Apr-20 00:00N 19°12' W 096°08'0 0.0
2017-Apr-19 23:30N 19°12' W 096°08'0 0.0
2017-Apr-19 23:00N 19°12' W 096°08'0 0.0
2017-Apr-19 22:30N 19°12' W 096°08'0 0.0
2017-Apr-19 21:57N 19°12' W 096°08'0 0.0
2017-Apr-19 21:30N 19°12' W 096°08'0 0.0
2017-Apr-19 21:00N 19°12' W 096°08'0 0.0
2017-Apr-19 20:27N 19°12' W 096°08'0 0.0
2017-Apr-19 19:57N 19°12' W 096°08'0 0.0
2017-Apr-19 19:27N 19°12' W 096°08'0 0.0
2017-Apr-19 18:54N 19°12' W 096°08'0 0.0
2017-Apr-19 18:30N 19°12' W 096°08'0 0.0
2017-Apr-19 18:00N 19°12' W 096°08'0 0.0
2017-Apr-19 17:27N 19°12' W 096°08'0 0.0
2017-Apr-19 16:57N 19°12' W 096°08'0 0.0
2017-Apr-19 16:30N 19°12' W 096°08'0 0.0
2017-Apr-19 15:57N 19°12' W 096°08'0 0.0
2017-Apr-19 15:27N 19°12' W 096°08'0 0.0
2017-Apr-19 14:57N 19°12' W 096°08'0 0.0
2017-Apr-19 14:30N 19°12' W 096°08'0 0.0
2017-Apr-19 13:24N 19°12' W 096°08'0 0.0
2017-Apr-19 13:00N 19°12' W 096°08'0 0.0
2017-Apr-19 12:27N 19°12' W 096°08'0 0.0
2017-Apr-19 11:56N 19°12' W 096°08'0 0.0
2017-Apr-19 11:29N 19°12' W 096°08'0 0.0
2017-Apr-19 10:44N 19°12' W 096°08'0 0.0
2017-Apr-19 10:29N 19°12' W 096°08'0 0.0
2017-Apr-19 09:53N 19°12' W 096°08'0 0.0
2017-Apr-19 09:29N 19°12' W 096°08'0 0.0
2017-Apr-19 08:59N 19°12' W 096°08'0 0.0
2017-Apr-19 08:29N 19°12' W 096°08'0 0.0
2017-Apr-19 07:59N 19°12' W 096°08'0 0.0
2017-Apr-19 07:29N 19°12' W 096°08'0 0.0
2017-Apr-19 06:56N 19°12' W 096°08'0 0.0
2017-Apr-19 06:26N 19°12' W 096°08'0 0.0
2017-Apr-19 05:56N 19°12' W 096°08'0 0.0
2017-Apr-19 05:26N 19°12' W 096°08'0 0.0
2017-Apr-19 04:59N 19°12' W 096°08'0 0.0
2017-Apr-19 04:20N 19°12' W 096°08'0 0.0
2017-Apr-19 03:59N 19°12' W 096°08'0 0.0
2017-Apr-19 03:26N 19°12' W 096°08'0 0.0
2017-Apr-19 02:59N 19°12' W 096°08'0 0.0
2017-Apr-19 02:29N 19°12' W 096°08'0 0.0
2017-Apr-19 01:56N 19°12' W 096°08'0 0.0
2017-Apr-19 01:29N 19°12' W 096°08'0 0.0
2017-Apr-19 00:59N 19°12' W 096°08'0 0.0
2017-Apr-19 00:26N 19°12' W 096°08'0 0.0
2017-Apr-18 23:53N 19°12' W 096°08'0 0.0
2017-Apr-18 23:26N 19°12' W 096°08'0 0.0
2017-Apr-18 22:50N 19°12' W 096°08'0 0.0
2017-Apr-18 22:29N 19°12' W 096°08'0 0.0
2017-Apr-18 21:59N 19°12' W 096°08'0 0.0
2017-Apr-18 21:26N 19°12' W 096°08'0 0.0
2017-Apr-18 20:56N 19°12' W 096°08'0 0.0
2017-Apr-18 20:29N 19°12' W 096°08'0 0.0
2017-Apr-18 19:56N 19°12' W 096°08'0 0.0
2017-Apr-18 19:29N 19°12' W 096°08'0 0.0
2017-Apr-18 18:56N 19°12' W 096°08'0 0.0
2017-Apr-18 18:20N 19°12' W 096°08'0 0.0
2017-Apr-18 17:56N 19°12' W 096°08'0 0.0
2017-Apr-18 17:26N 19°12' W 096°08'0 0.0
2017-Apr-18 16:56N 19°12' W 096°08'0 0.0
2017-Apr-18 16:26N 19°12' W 096°08'0 0.0
2017-Apr-18 15:59N 19°12' W 096°08'0 0.0
2017-Apr-18 15:29N 19°12' W 096°08'0 0.0
2017-Apr-18 14:59N 19°12' W 096°08'0 0.0
2017-Apr-18 14:26N 19°12' W 096°08'0 0.0
2017-Apr-18 13:29N 19°12' W 096°08'0 0.0
2017-Apr-18 12:59N 19°12' W 096°08'0 0.0
2017-Apr-18 12:29N 19°12' W 096°08'0 0.0
2017-Apr-18 11:59N 19°12' W 096°08'0 0.0
2017-Apr-18 11:29N 19°12' W 096°08'0 0.0
2017-Apr-18 10:59N 19°12' W 096°08'0 0.0
2017-Apr-18 10:29N 19°12' W 096°08'0 0.0
2017-Apr-18 09:59N 19°12' W 096°08'0 0.0
2017-Apr-18 09:29N 19°12' W 096°08'0 0.0
2017-Apr-18 08:59N 19°12' W 096°08'0 0.0
2017-Apr-18 08:29N 19°12' W 096°08'0 0.0
2017-Apr-18 07:59N 19°12' W 096°08'0 0.0
2017-Apr-18 07:29N 19°12' W 096°08'0 0.0
2017-Apr-18 06:56N 19°12' W 096°08'0 0.0
2017-Apr-18 06:29N 19°12' W 096°08'0 0.0
2017-Apr-18 05:59N 19°12' W 096°08'0 0.0
2017-Apr-18 05:20N 19°12' W 096°08'0 0.0
2017-Apr-18 04:59N 19°12' W 096°08'0 0.0
2017-Apr-18 04:29N 19°12' W 096°08'0 0.0
2017-Apr-18 03:59N 19°12' W 096°08'0 0.0
2017-Apr-18 03:29N 19°12' W 096°08'0 0.0
2017-Apr-18 02:56N 19°12' W 096°08'0 0.0
2017-Apr-18 02:29N 19°12' W 096°08'0 0.0
2017-Apr-18 01:50N 19°12' W 096°08'0 0.0
2017-Apr-18 01:29N 19°12' W 096°08'0 0.0
2017-Apr-18 00:59N 19°12' W 096°08'0 0.0
2017-Apr-18 00:19N 19°12' W 096°08'0 0.0
2017-Apr-17 23:58N 19°12' W 096°08'0 0.0
2017-Apr-17 23:28N 19°12' W 096°08'0 0.0
2017-Apr-17 22:55N 19°12' W 096°08'0 0.0
2017-Apr-17 22:25N 19°12' W 096°08'0 0.0
2017-Apr-17 21:58N 19°12' W 096°08'0 0.0
2017-Apr-17 21:28N 19°12' W 096°08'0 0.4
2017-Apr-17 20:57N 19°12' W 096°08'4 8.2
2017-Apr-17 20:29N 19°11' W 096°04'1 1.6
2017-Apr-17 19:50N 19°10' W 096°05'0 0.0
2017-Apr-17 19:17N 19°10' W 096°05'0 0.0
2017-Apr-17 18:53N 19°10' W 096°05'0 0.0
2017-Apr-17 18:20N 19°10' W 096°05'617.2
2017-Apr-17 18:00N 19°06' W 096°00'614.4 060 / 61013.4 5.4 28.523.722.0
2017-Apr-17 17:35N 19°10' W 096°05'0 0.0
2017-Apr-17 17:23N 19°10' W 096°05'0 0.0
2017-Apr-17 16:53N 19°10' W 096°05'0 0.0
2017-Apr-17 16:02N 19°10' W 096°05'0 0.1
2017-Apr-17 15:56N 19°10' W 096°05'0 0.0
2017-Apr-17 15:26N 19°10' W 096°05'0 0.0
2017-Apr-17 14:14N 19°10' W 096°05'0 0.0
2017-Apr-17 13:26N 19°10' W 096°05'0 0.0
2017-Apr-17 12:56N 19°10' W 096°05'0 0.0
2017-Apr-17 12:26N 19°10' W 096°05'0 0.0
2017-Apr-17 11:59N 19°10' W 096°05'0 0.0
2017-Apr-17 11:29N 19°10' W 096°05'0 0.1
2017-Apr-17 10:56N 19°10' W 096°05'0 0.0
2017-Apr-17 10:14N 19°10' W 096°05'0 0.0
2017-Apr-17 09:56N 19°10' W 096°05'0 0.0
2017-Apr-17 09:26N 19°10' W 096°05'0 0.0
2017-Apr-17 08:44N 19°10' W 096°05'0 0.0
2017-Apr-17 08:08N 19°10' W 096°05'0 0.0
2017-Apr-17 07:56N 19°10' W 096°05'0 0.0
2017-Apr-17 07:26N 19°10' W 096°05'6 4.1
2017-Apr-17 06:00N 19°06' W 096°00'635.7 090 / 41014.4 5.4 25.022.921.0
2017-Apr-17 05:50N 19°10' W 096°05'  

Dump ship's entire track history